Airfield :
LOGIN :

Register | Disclaimer

   EN    FR    IT 

 










Legend :    VFR   Marginal VFR   IFR   Intensive IFR   Very Intensive IFR
Visi :
Ceiling :
>= 8 km
>= 3000ft
5 to 8 km
1000 to 3000 ft
1500m to 5 km
500 to 1000 ft
800 to 1500m
200 to 500 ft
< 800m
< 200 ft
Symbols :   Thunderstorms  Fog  Heavy snow  Heavy precipitations  Wind > 20 kt
SIGMETs :     Misc.  Thunderstorms  Icing  Turbulence  Mountain Waves  Volcanic Ashes






- Airport Elevation : 453 ft
- IATA code : SBK


LFRT - St Brieuc Armor

CURRENT METAR :
  • 141900Z AUTO 00000KT 9999 -RA BKN034 OVC042 05/04 Q0997

EXPIRED METARs :
  • 141830Z AUTO VRB02KT 9000 -RA FEW013 SCT025 OVC038 05/05 Q0996
  • 141800Z AUTO 22002KT 9999 -RA SCT015 OVC025 06/05 Q0996
  • 141730Z AUTO VRB02KT 9999 -RA SCT025 BKN036 BKN042 06/05 Q0996
  • 141700Z AUTO 29001KT 9999 -RA OVC034 06/05 Q0995
  • 141630Z AUTO 25006KT 210V280 9999 -RA BKN032/// OVC039/// ///TCU 06/04 Q0995
  • 141600Z AUTO 28006KT 9999 -RA SCT026 BKN032 BKN047 06/04 Q0995

Expired Forecast.



MET'MAP, your aeronautical weather chart ! - Copyright ORBIFLY December 2007 - Disclaimer

ORBIFLY MET'MAP TEAM :

Programming & Development : Alexandra Zaïnal
Concept & Development : Baudouin d'Aumeries
Co-Development & Prog : Marc-Olivier Méhu
Technical & hardware support : Manuel Goepfert

Contact : metmap@orbifly.com




SOURCES & CREDITS :

   NOAA